Rona II — MPKR2 — position and weather

sailwx.info

Track history (hours):
 
Tides and Currents Weather Stations Pressure Air Temp Water Temp Dewpoint Dewpoint Depression Visibility Wind Speed Wind Dir Waves Ship Positions

Rona II

Last reported at 2016-Jul-26 03:16 UTC. Time now 2016-Jul-27 07:44 UTC.
Position N 37°32' W 009°42'.

Length 22 m.

Type: Sailing vessel. MMSI: 232714000.

Date/timePositionNaut miles runAvg speedWind from/ knotsBaromVisibWave heightAir tempDewpointWater temp
2016-Jul-26 03:16N 37°32' W 009°42'5 6.3
2016-Jul-26 02:30N 37°37' W 009°40'7 7.4
2016-Jul-26 01:31N 37°44' W 009°36'7 7.2
2016-Jul-26 00:32N 37°51' W 009°35'8 8.3
2016-Jul-25 23:32N 37°59' W 009°32'9 8.2
2016-Jul-25 22:29N 38°07' W 009°30'9 8.5
2016-Jul-25 21:28N 38°16' W 009°28'8 8.6
2016-Jul-25 20:32N 38°24' W 009°26'9 8.8
2016-Jul-25 19:32N 38°32' W 009°26'6 6.3
2016-Jul-25 18:33N 38°39' W 009°25'2 2.0
2016-Jul-25 17:33N 38°39' W 009°22'5 3.4
2016-Jul-25 16:07N 38°41' W 009°17'1 1.8
2016-Jul-25 15:33N 38°41' W 009°16'2 0.1
2016-Jul-24 22:27N 38°42' W 009°14'2 0.7
2016-Jul-24 19:25N 38°42' W 009°11'3 0.4
2016-Jul-24 12:33N 38°41' W 009°14'3 3.4
2016-Jul-24 11:33N 38°41' W 009°19'4 3.7
2016-Jul-24 10:33N 38°41' W 009°14'1 0.9
2016-Jul-24 09:33N 38°41' W 009°13'3 0.1
2016-Jul-22 05:33N 38°42' W 009°16'6 5.6
2016-Jul-22 04:25N 38°41' W 009°24'1 0.0
2016-Jul-21 04:07N 38°42' W 009°25'  
Track history (hours):
 
Tides and Currents Weather Stations Pressure Air Temp Water Temp Dewpoint Dewpoint Depression Visibility Wind Speed Wind Dir Waves Ship Positions

Rona II

Last reported at 2016-Jul-26 03:16 UTC. Time now 2016-Jul-27 07:44 UTC.
Position N 37°32' W 009°42'.

Length 22 m.

Type: Sailing vessel. MMSI: 232714000.

Date/timePositionNaut miles runAvg speedWind from/ knotsBaromVisibWave heightAir tempDewpointWater temp
2016-Jul-26 03:16N 37°32' W 009°42'5 6.3
2016-Jul-26 02:30N 37°37' W 009°40'7 7.4
2016-Jul-26 01:31N 37°44' W 009°36'7 7.2
2016-Jul-26 00:32N 37°51' W 009°35'8 8.3
2016-Jul-25 23:32N 37°59' W 009°32'9 8.2
2016-Jul-25 22:29N 38°07' W 009°30'9 8.5
2016-Jul-25 21:28N 38°16' W 009°28'8 8.6
2016-Jul-25 20:32N 38°24' W 009°26'9 8.8
2016-Jul-25 19:32N 38°32' W 009°26'6 6.3
2016-Jul-25 18:33N 38°39' W 009°25'2 2.0
2016-Jul-25 17:33N 38°39' W 009°22'5 3.4
2016-Jul-25 16:07N 38°41' W 009°17'1 1.8
2016-Jul-25 15:33N 38°41' W 009°16'2 0.1
2016-Jul-24 22:27N 38°42' W 009°14'2 0.7
2016-Jul-24 19:25N 38°42' W 009°11'3 0.4
2016-Jul-24 12:33N 38°41' W 009°14'3 3.4
2016-Jul-24 11:33N 38°41' W 009°19'4 3.7
2016-Jul-24 10:33N 38°41' W 009°14'1 0.9
2016-Jul-24 09:33N 38°41' W 009°13'3 0.1
2016-Jul-22 05:33N 38°42' W 009°16'6 5.6
2016-Jul-22 04:25N 38°41' W 009°24'1 0.0
2016-Jul-21 04:07N 38°42' W 009°25'  

Dump ship's entire track history